Time;durP1;ratioP1;P1;durP2;ratioP2;P2;SDS_P1;SDS_P2;PMS_P1;PMS_P2;Temp;Humidity;BMP_temperature;BMP_pressure;BME280_temperature;BME280_humidity;BME280_pressure;Samples;Min_cycle;Max_cycle;Signal;HPM_P1;HPM_P2
2023/04/24 00:00:32;;;;;;;5.80;5.25;;;11.50;99.90;;;;;;5035069;28;20030;-60
2023/04/24 00:02:58;;;;;;;6.65;4.75;;;11.50;99.90;;;;;;5035021;28;20046;-61
2023/04/24 00:05:24;;;;;;;5.18;4.68;;;11.50;99.90;;;;;;5034611;28;20271;-59
2023/04/24 00:07:54;;;;;;;5.13;4.45;;;11.50;99.90;;;;;;5035138;28;20116;-61
2023/04/24 00:10:19;;;;;;;5.47;4.70;;;11.50;99.90;;;;;;5035244;28;20021;-60
2023/04/24 00:12:45;;;;;;;4.95;4.38;;;11.50;99.90;;;;;;5035669;28;20523;-61
2023/04/24 00:15:11;;;;;;;5.45;4.90;;;11.40;99.90;;;;;;5035567;28;20037;-61
2023/04/24 00:17:37;;;;;;;5.35;3.83;;;11.40;99.90;;;;;;5034614;28;20091;-59
2023/04/24 00:20:04;;;;;;;5.53;5.03;;;11.40;99.90;;;;;;5035369;28;20035;-60
2023/04/24 00:22:30;;;;;;;6.97;5.13;;;11.40;99.90;;;;;;5063427;22;20037;-47
2023/04/24 00:24:56;;;;;;;5.25;4.75;;;11.40;99.90;;;;;;5045227;28;20032;-49
2023/04/24 00:27:22;;;;;;;5.72;5.15;;;11.40;99.90;;;;;;5044848;28;20017;-48
2023/04/24 00:29:48;;;;;;;5.88;5.05;;;11.40;99.90;;;;;;5046101;28;20082;-50
2023/04/24 00:32:15;;;;;;;5.80;4.95;;;11.40;99.90;;;;;;5040193;28;20032;-49
2023/04/24 00:34:41;;;;;;;6.25;5.05;;;11.30;99.90;;;;;;5024818;28;20079;-50
2023/04/24 00:37:06;;;;;;;5.85;5.20;;;11.30;99.90;;;;;;5038313;28;20029;-48
2023/04/24 00:39:32;;;;;;;5.07;4.57;;;11.30;99.90;;;;;;5035301;28;20033;-49
2023/04/24 00:41:58;;;;;;;5.30;4.82;;;11.30;99.90;;;;;;5044799;28;20021;-48
2023/04/24 00:44:25;;;;;;;5.00;4.32;;;11.30;99.90;;;;;;5043959;28;20033;-48
2023/04/24 00:46:54;;;;;;;5.35;4.75;;;11.30;99.90;;;;;;5043790;28;20538;-49
2023/04/24 00:49:20;;;;;;;5.30;4.80;;;11.30;99.90;;;;;;5044479;28;20506;-49
2023/04/24 00:51:46;;;;;;;5.40;4.90;;;11.30;99.90;;;;;;5044124;28;20033;-49
2023/04/24 00:54:13;;;;;;;5.50;5.00;;;11.30;99.90;;;;;;5041222;28;20112;-47
2023/04/24 00:56:39;;;;;;;6.25;4.50;;;11.20;99.90;;;;;;5042723;28;20522;-51
2023/04/24 00:59:05;;;;;;;5.82;5.00;;;11.20;99.90;;;;;;5031479;28;20071;-50
2023/04/24 01:01:30;;;;;;;4.72;4.30;;;11.20;99.90;;;;;;5040360;28;20065;-48
2023/04/24 01:03:57;;;;;;;5.13;4.63;;;11.20;99.90;;;;;;5042707;28;20029;-48
2023/04/24 01:06:27;;;;;;;5.43;4.88;;;11.20;99.90;;;;;;5038449;28;20458;-51
2023/04/24 01:08:53;;;;;;;5.53;4.70;;;11.20;99.90;;;;;;5043737;28;20025;-49
2023/04/24 01:11:19;;;;;;;5.32;4.75;;;11.20;99.90;;;;;;5043767;28;20156;-48
2023/04/24 01:13:45;;;;;;;5.95;5.30;;;11.20;99.90;;;;;;5025295;28;20033;-48
2023/04/24 01:16:11;;;;;;;5.85;5.15;;;11.20;99.90;;;;;;5044079;28;20036;-49
2023/04/24 01:18:38;;;;;;;5.20;4.70;;;11.20;99.90;;;;;;5042943;28;20029;-48
2023/04/24 01:21:04;;;;;;;5.30;4.80;;;11.20;99.90;;;;;;5034126;28;20036;-48
2023/04/24 01:23:29;;;;;;;6.10;5.60;;;11.10;99.90;;;;;;5038913;28;20033;-50
2023/04/24 01:25:55;;;;;;;7.22;5.75;;;11.10;99.90;;;;;;5043765;28;20029;-48
2023/04/24 01:28:21;;;;;;;6.03;5.18;;;11.10;99.90;;;;;;5045455;28;20101;-48
2023/04/24 01:30:47;;;;;;;6.07;5.47;;;11.10;99.90;;;;;;5044780;28;20030;-48
2023/04/24 01:33:13;;;;;;;5.22;4.70;;;11.00;99.90;;;;;;5048389;28;20047;-51
2023/04/24 01:35:39;;;;;;;6.60;5.03;;;11.00;99.90;;;;;;5047300;28;20040;-48
2023/04/24 01:38:05;;;;;;;6.20;5.45;;;11.00;99.90;;;;;;5047941;28;20547;-49
2023/04/24 01:40:32;;;;;;;5.45;4.63;;;11.00;99.90;;;;;;5037518;28;20116;-48
2023/04/24 01:42:58;;;;;;;5.38;4.88;;;11.00;99.90;;;;;;5046843;28;20037;-49
2023/04/24 01:45:24;;;;;;;5.15;4.38;;;10.90;99.90;;;;;;5045288;28;20112;-52
2023/04/24 01:47:50;;;;;;;7.35;4.65;;;10.90;99.90;;;;;;5044189;28;20104;-49
2023/04/24 01:50:15;;;;;;;6.45;4.78;;;10.90;99.90;;;;;;5047401;28;20116;-51
2023/04/24 01:52:41;;;;;;;5.00;4.60;;;10.90;99.90;;;;;;5047347;28;20036;-50
2023/04/24 01:55:07;;;;;;;5.18;4.68;;;10.90;99.90;;;;;;5043309;28;20149;-48
2023/04/24 01:57:33;;;;;;;6.22;4.78;;;10.90;99.90;;;;;;5045833;28;20064;-48
2023/04/24 01:59:59;;;;;;;5.07;4.57;;;10.90;99.90;;;;;;5030586;28;20021;-51
2023/04/24 02:02:27;;;;;;;6.00;4.70;;;10.90;99.90;;;;;;5046493;28;20098;-48
2023/04/24 02:04:54;;;;;;;5.60;5.10;;;10.90;99.90;;;;;;5037584;28;20059;-50
2023/04/24 02:07:19;;;;;;;7.20;5.35;;;10.90;99.90;;;;;;5047582;28;20028;-48
2023/04/24 02:09:45;;;;;;;5.07;4.57;;;10.90;99.90;;;;;;5047449;28;20017;-49
2023/04/24 02:12:11;;;;;;;6.15;4.43;;;10.90;99.90;;;;;;5046430;28;20033;-48
2023/04/24 02:14:36;;;;;;;4.78;4.25;;;10.80;99.90;;;;;;5046182;28;20082;-49
2023/04/24 02:17:02;;;;;;;7.35;4.50;;;10.80;99.90;;;;;;5047437;28;20048;-51
2023/04/24 02:19:27;;;;;;;5.25;3.53;;;10.80;99.90;;;;;;5045607;28;20033;-48
2023/04/24 02:21:53;;;;;;;3.92;3.53;;;10.80;99.90;;;;;;5046200;28;20083;-50
2023/04/24 02:24:18;;;;;;;3.83;3.47;;;10.80;99.90;;;;;;5029143;28;20116;-50
2023/04/24 02:26:44;;;;;;;3.33;3.03;;;10.70;99.90;;;;;;5046497;28;20092;-52
2023/04/24 02:29:10;;;;;;;4.13;3.25;;;10.70;99.90;;;;;;5043772;28;20037;-49
2023/04/24 02:31:35;;;;;;;3.50;3.20;;;10.70;99.90;;;;;;5043028;28;20049;-51
2023/04/24 02:34:01;;;;;;;4.57;2.80;;;10.60;99.90;;;;;;5046904;28;20041;-51
2023/04/24 02:36:27;;;;;;;3.08;2.78;;;10.60;99.90;;;;;;5044695;28;20035;-48
2023/04/24 02:38:52;;;;;;;3.35;2.70;;;10.50;99.90;;;;;;5042177;28;20029;-49
2023/04/24 02:41:18;;;;;;;2.20;2.00;;;10.40;99.90;;;;;;5044014;28;20025;-51
2023/04/24 02:43:43;;;;;;;2.20;2.00;;;10.50;99.90;;;;;;5046174;28;20317;-48
2023/04/24 02:46:09;;;;;;;4.03;2.10;;;10.40;99.90;;;;;;5042966;28;20032;-47
2023/04/24 02:48:34;;;;;;;2.53;1.85;;;10.40;99.90;;;;;;5044823;28;20024;-48
2023/04/24 02:51:00;;;;;;;2.15;1.95;;;10.40;99.90;;;;;;5041444;28;20040;-48
2023/04/24 02:53:25;;;;;;;2.10;1.90;;;10.30;99.90;;;;;;5029823;28;20482;-52
2023/04/24 02:55:51;;;;;;;2.20;1.98;;;10.30;99.90;;;;;;5046675;28;20100;-48
2023/04/24 02:58:17;;;;;;;2.22;1.85;;;10.30;99.90;;;;;;5046218;28;20373;-49
2023/04/24 03:00:43;;;;;;;2.83;1.73;;;10.30;99.90;;;;;;5044685;28;20054;-50
2023/04/24 03:03:09;;;;;;;1.92;1.80;;;10.20;99.90;;;;;;5041171;28;20033;-48
2023/04/24 03:05:34;;;;;;;2.00;1.80;;;10.10;99.90;;;;;;5044688;28;20035;-49
2023/04/24 03:08:00;;;;;;;1.55;1.45;;;10.10;99.90;;;;;;5045455;28;20118;-52
2023/04/24 03:10:26;;;;;;;1.70;1.60;;;10.10;99.90;;;;;;5047168;28;20098;-51
2023/04/24 03:12:51;;;;;;;2.15;1.88;;;10.00;99.90;;;;;;5046553;28;20053;-47
2023/04/24 03:15:17;;;;;;;2.35;2.10;;;10.00;99.90;;;;;;5042820;28;20029;-49
2023/04/24 03:17:42;;;;;;;2.33;2.13;;;10.00;99.90;;;;;;5044661;28;20029;-47
2023/04/24 03:20:09;;;;;;;3.30;2.15;;;9.90;99.90;;;;;;5046418;28;20037;-49
2023/04/24 03:22:34;;;;;;;2.53;2.33;;;9.90;99.90;;;;;;5044703;28;20167;-48
2023/04/24 03:25:00;;;;;;;2.53;2.33;;;10.00;99.90;;;;;;5041009;28;20100;-49
2023/04/24 03:27:26;;;;;;;2.17;2.00;;;9.90;99.90;;;;;;5043070;28;20025;-52
2023/04/24 03:29:55;;;;;;;2.83;2.60;;;9.90;99.90;;;;;;5045984;28;20024;-48
2023/04/24 03:32:22;;;;;;;2.38;2.13;;;9.90;99.90;;;;;;5042092;28;20084;-48
2023/04/24 03:34:48;;;;;;;2.10;1.90;;;9.90;99.90;;;;;;5044688;28;20033;-48
2023/04/24 03:37:13;;;;;;;2.05;1.85;;;10.00;99.90;;;;;;5042533;28;20503;-48
2023/04/24 03:39:39;;;;;;;2.30;2.10;;;9.90;99.90;;;;;;5045302;28;20118;-49
2023/04/24 03:42:04;;;;;;;2.55;2.20;;;9.90;99.90;;;;;;5044604;28;20120;-50
2023/04/24 03:44:30;;;;;;;2.78;1.83;;;9.90;99.90;;;;;;5045013;28;20037;-49
2023/04/24 03:46:55;;;;;;;2.45;2.00;;;9.80;99.90;;;;;;5045150;28;20032;-47
2023/04/24 03:49:21;;;;;;;2.25;2.03;;;9.80;99.90;;;;;;5042887;28;20510;-49
2023/04/24 03:51:47;;;;;;;2.30;2.10;;;9.80;99.90;;;;;;5043714;28;20046;-52
2023/04/24 03:54:13;;;;;;;2.75;2.33;;;9.80;99.90;;;;;;5043488;28;20427;-47
2023/04/24 03:56:39;;;;;;;3.33;2.20;;;9.70;99.90;;;;;;5044278;28;20072;-47
2023/04/24 03:59:04;;;;;;;2.92;2.33;;;9.70;99.90;;;;;;5043542;28;20064;-48
2023/04/24 04:01:30;;;;;;;2.30;1.77;;;9.70;99.90;;;;;;5043318;28;20434;-48
2023/04/24 04:03:56;;;;;;;5.20;2.40;;;9.70;99.90;;;;;;5045486;28;20021;-47
2023/04/24 04:06:21;;;;;;;2.30;2.08;;;9.70;99.90;;;;;;5039976;28;20028;-50
2023/04/24 04:08:47;;;;;;;2.00;1.80;;;9.70;99.90;;;;;;5043550;28;20074;-47
2023/04/24 04:11:13;;;;;;;2.28;1.70;;;9.60;99.90;;;;;;5044832;28;20155;-47
2023/04/24 04:13:38;;;;;;;3.45;2.30;;;9.60;99.90;;;;;;5041584;28;20082;-48
2023/04/24 04:16:04;;;;;;;4.38;2.28;;;9.60;99.90;;;;;;5044799;28;20134;-48
2023/04/24 04:18:30;;;;;;;4.57;2.40;;;9.60;99.90;;;;;;5043839;28;20029;-51
2023/04/24 04:20:56;;;;;;;3.35;2.03;;;9.50;99.90;;;;;;5043281;28;20327;-50
2023/04/24 04:23:22;;;;;;;2.88;2.22;;;9.50;99.90;;;;;;5039362;28;20105;-51
2023/04/24 04:25:48;;;;;;;2.83;2.15;;;9.50;99.90;;;;;;5042638;28;20147;-48
2023/04/24 04:28:13;;;;;;;2.08;1.90;;;9.50;99.90;;;;;;5044906;28;20047;-50
2023/04/24 04:30:40;;;;;;;2.65;2.47;;;9.50;99.90;;;;;;5038581;28;20027;-48
2023/04/24 04:33:05;;;;;;;2.15;2.03;;;9.50;99.90;;;;;;5045080;28;20033;-48
2023/04/24 04:35:31;;;;;;;2.90;2.10;;;9.40;99.90;;;;;;5043458;28;20407;-48
2023/04/24 04:37:58;;;;;;;2.20;2.00;;;9.40;99.90;;;;;;5043410;28;20495;-48
2023/04/24 04:40:24;;;;;;;1.83;1.73;;;9.40;99.90;;;;;;5040258;28;20075;-47
2023/04/24 04:42:52;;;;;;;1.60;1.50;;;9.40;99.90;;;;;;5041725;28;20938;-47
2023/04/24 04:45:18;;;;;;;2.25;2.05;;;9.50;99.90;;;;;;5044651;28;20021;-48
2023/04/24 04:47:44;;;;;;;1.67;1.58;;;9.50;99.90;;;;;;5042076;28;20031;-49
2023/04/24 04:50:10;;;;;;;2.13;1.80;;;9.40;99.90;;;;;;5043674;28;20112;-47
2023/04/24 04:52:39;;;;;;;1.52;1.42;;;9.40;99.90;;;;;;5039777;28;20025;-49
2023/04/24 04:55:05;;;;;;;1.63;1.50;;;9.40;99.90;;;;;;5043919;28;20135;-50
2023/04/24 04:57:30;;;;;;;1.85;1.63;;;9.40;99.90;;;;;;5043783;28;20021;-47
2023/04/24 04:59:56;;;;;;;1.90;1.67;;;9.50;99.90;;;;;;5043411;28;20554;-48
2023/04/24 05:02:22;;;;;;;1.73;1.60;;;9.60;99.90;;;;;;5044426;28;20029;-47
2023/04/24 05:04:47;;;;;;;2.35;1.80;;;9.70;99.90;;;;;;5046236;28;20017;-48
2023/04/24 05:07:13;;;;;;;1.60;1.50;;;9.80;99.90;;;;;;5047345;28;20025;-47
2023/04/24 05:09:38;;;;;;;2.28;2.08;;;9.90;99.90;;;;;;5043351;28;20024;-48
2023/04/24 05:12:04;;;;;;;1.98;1.30;;;9.90;99.90;;;;;;5046919;28;20486;-51
2023/04/24 05:14:30;;;;;;;1.55;1.45;;;9.90;99.90;;;;;;5048101;28;20028;-51
2023/04/24 05:16:55;;;;;;;2.85;1.42;;;10.00;99.90;;;;;;5045836;28;20391;-48
2023/04/24 05:19:21;;;;;;;2.70;1.40;;;10.00;99.90;;;;;;5047415;28;20108;-47
2023/04/24 05:21:46;;;;;;;1.67;1.20;;;10.00;99.90;;;;;;5043961;28;20028;-48
2023/04/24 05:24:12;;;;;;;1.30;1.20;;;9.90;99.90;;;;;;5031123;28;20021;-52
2023/04/24 05:26:37;;;;;;;1.30;1.20;;;9.90;99.90;;;;;;5041708;28;20017;-52
2023/04/24 05:29:03;;;;;;;1.55;1.20;;;9.90;99.90;;;;;;5045754;28;20036;-50
2023/04/24 05:31:30;;;;;;;3.00;1.40;;;10.00;99.90;;;;;;5044926;28;20028;-49
2023/04/24 05:33:56;;;;;;;1.50;1.25;;;10.00;99.90;;;;;;5048137;28;20060;-47
2023/04/24 05:36:21;;;;;;;2.13;1.40;;;10.10;99.90;;;;;;5031633;28;20099;-48
2023/04/24 05:38:47;;;;;;;2.28;1.52;;;10.20;99.90;;;;;;5047046;28;20518;-48
2023/04/24 05:41:12;;;;;;;1.38;1.27;;;10.30;99.90;;;;;;5046948;28;20033;-50
2023/04/24 05:43:38;;;;;;;1.55;1.40;;;10.40;99.90;;;;;;5043180;28;20040;-48
2023/04/24 05:46:03;;;;;;;1.70;1.45;;;10.50;99.90;;;;;;5045505;28;20021;-47
2023/04/24 05:48:29;;;;;;;2.10;1.40;;;10.60;99.90;;;;;;5047154;28;20048;-49
2023/04/24 05:50:55;;;;;;;1.98;1.48;;;10.60;99.90;;;;;;5046068;28;20099;-49
2023/04/24 05:53:20;;;;;;;1.30;1.20;;;10.70;99.90;;;;;;5047578;28;20526;-48
2023/04/24 05:55:47;;;;;;;1.25;1.00;;;10.80;99.90;;;;;;5047367;28;20059;-48
2023/04/24 05:58:12;;;;;;;1.90;1.52;;;10.90;99.90;;;;;;5044748;28;20025;-47
2023/04/24 06:00:39;;;;;;;1.67;1.50;;;10.90;99.90;;;;;;5031084;28;20087;-48
2023/04/24 06:03:05;;;;;;;1.40;1.27;;;10.90;99.90;;;;;;5046078;28;20047;-49
2023/04/24 06:05:31;;;;;;;4.63;1.85;;;11.00;99.90;;;;;;5044866;28;20017;-47
2023/04/24 06:07:56;;;;;;;1.33;1.23;;;11.00;99.90;;;;;;5043795;28;20463;-48
2023/04/24 06:10:22;;;;;;;1.38;1.15;;;11.00;99.90;;;;;;5047218;28;20090;-49
2023/04/24 06:12:47;;;;;;;3.38;1.58;;;11.00;99.90;;;;;;5046572;28;20032;-49
2023/04/24 06:15:13;;;;;;;2.58;1.52;;;11.00;99.90;;;;;;5043228;28;20403;-49
2023/04/24 06:17:38;;;;;;;1.85;1.40;;;11.10;99.90;;;;;;5045472;28;20372;-47
2023/04/24 06:20:06;;;;;;;1.42;1.33;;;11.10;99.90;;;;;;5041784;28;20021;-48
2023/04/24 06:22:32;;;;;;;1.55;1.42;;;11.10;99.90;;;;;;5056391;22;20049;-59
2023/04/24 06:24:57;;;;;;;1.92;1.73;;;11.10;99.90;;;;;;5046434;28;20033;-58
2023/04/24 06:27:23;;;;;;;1.98;1.52;;;11.10;99.90;;;;;;5045434;28;20121;-59
2023/04/24 06:29:54;;;;;;;1.35;1.25;;;11.20;99.90;;;;;;5045771;28;20085;-58
2023/04/24 06:32:23;;;;;;;2.25;1.63;;;11.20;99.90;;;;;;5043673;28;20028;-55
2023/04/24 06:34:50;;;;;;;2.97;1.67;;;11.30;99.90;;;;;;5019494;28;20053;-59
2023/04/24 06:37:16;;;;;;;1.67;1.58;;;11.50;99.90;;;;;;5035908;28;20033;-59
2023/04/24 06:39:41;;;;;;;1.58;1.48;;;11.60;99.90;;;;;;5036383;28;20132;-58
2023/04/24 06:42:09;;;;;;;1.63;1.52;;;11.70;99.90;;;;;;5036255;28;20033;-59
2023/04/24 06:44:40;;;;;;;1.60;1.50;;;11.80;99.90;;;;;;5036472;28;20065;-58
2023/04/24 06:47:09;;;;;;;2.17;1.23;;;11.90;99.90;;;;;;5036123;28;20036;-59
2023/04/24 06:49:36;;;;;;;3.00;1.27;;;12.00;99.90;;;;;;5035180;28;20025;-55
2023/04/24 06:52:02;;;;;;;2.95;1.50;;;12.20;99.90;;;;;;5036446;28;20029;-57
2023/04/24 06:54:29;;;;;;;2.97;0.93;;;12.30;99.90;;;;;;5036408;28;20052;-58
2023/04/24 06:56:55;;;;;;;1.30;1.13;;;12.40;99.90;;;;;;5035390;28;20022;-58
2023/04/24 06:59:21;;;;;;;2.08;1.30;;;12.70;99.90;;;;;;5034437;28;20040;-56
2023/04/24 07:01:46;;;;;;;1.27;1.17;;;12.90;99.90;;;;;;5034065;28;20030;-55
2023/04/24 07:04:12;;;;;;;1.10;0.90;;;13.00;99.90;;;;;;5036089;28;20068;-53
2023/04/24 07:06:38;;;;;;;1.95;1.40;;;13.00;99.90;;;;;;5018068;28;20017;-58
2023/04/24 07:09:04;;;;;;;0.95;0.95;;;13.10;99.90;;;;;;5018985;28;20029;-56
2023/04/24 07:11:30;;;;;;;1.30;1.20;;;13.20;99.90;;;;;;5035241;28;20028;-57
2023/04/24 07:13:55;;;;;;;1.23;0.93;;;13.30;99.90;;;;;;5036498;28;20033;-55
2023/04/24 07:16:21;;;;;;;2.88;1.40;;;13.40;99.90;;;;;;5035560;28;20439;-59
2023/04/24 07:18:47;;;;;;;1.38;1.27;;;13.40;99.90;;;;;;5034574;28;20644;-57
2023/04/24 07:21:13;;;;;;;1.38;1.27;;;13.30;99.90;;;;;;5034779;28;20025;-57
2023/04/24 07:23:38;;;;;;;1.88;1.40;;;13.30;99.90;;;;;;5035472;28;20102;-57
2023/04/24 07:26:04;;;;;;;2.03;1.83;;;13.20;99.90;;;;;;5035966;28;20033;-57
2023/04/24 07:28:31;;;;;;;2.45;1.95;;;13.20;99.90;;;;;;5033470;28;20471;-57
2023/04/24 07:30:57;;;;;;;2.90;1.90;;;13.10;99.90;;;;;;5036112;28;20111;-59
2023/04/24 07:33:22;;;;;;;1.60;1.48;;;13.10;99.90;;;;;;5034663;28;20174;-56
2023/04/24 07:35:48;;;;;;;2.40;2.03;;;13.00;99.90;;;;;;5035800;28;20459;-58
2023/04/24 07:38:14;;;;;;;3.70;2.38;;;13.20;99.90;;;;;;5034121;28;20033;-57
2023/04/24 07:40:40;;;;;;;3.40;2.13;;;13.50;99.90;;;;;;5035891;28;20028;-58
2023/04/24 07:43:05;;;;;;;2.42;2.00;;;13.70;99.90;;;;;;5034564;28;20021;-59
2023/04/24 07:45:31;;;;;;;1.90;1.80;;;14.00;99.90;;;;;;5035738;28;20037;-55
2023/04/24 07:47:56;;;;;;;3.25;2.95;;;14.10;99.90;;;;;;5034467;28;20108;-57
2023/04/24 07:50:22;;;;;;;2.83;2.20;;;14.20;99.90;;;;;;5023707;28;20462;-57
2023/04/24 07:52:48;;;;;;;2.60;2.40;;;14.20;99.90;;;;;;5015796;28;20030;-59
2023/04/24 07:55:14;;;;;;;2.50;2.30;;;14.10;99.90;;;;;;5035714;28;20032;-59
2023/04/24 07:57:39;;;;;;;2.30;2.20;;;13.90;99.90;;;;;;5034168;28;20025;-57
2023/04/24 08:00:07;;;;;;;2.85;2.47;;;13.70;99.90;;;;;;5034791;28;20032;-57
2023/04/24 08:02:33;;;;;;;2.65;2.30;;;13.50;99.90;;;;;;5033783;28;20017;-59
2023/04/24 08:04:58;;;;;;;2.88;2.67;;;13.40;99.90;;;;;;5017047;28;20087;-59
2023/04/24 08:07:24;;;;;;;3.75;3.08;;;13.20;99.90;;;;;;5016040;28;20430;-58
2023/04/24 08:09:50;;;;;;;3.70;2.92;;;13.10;99.90;;;;;;5034562;28;20029;-59
2023/04/24 08:12:15;;;;;;;3.00;2.80;;;13.10;99.90;;;;;;5032580;28;20104;-58
2023/04/24 08:14:41;;;;;;;4.40;3.13;;;12.90;99.90;;;;;;5016245;28;20799;-58
2023/04/24 08:17:06;;;;;;;3.15;2.88;;;12.90;99.90;;;;;;5033654;28;20028;-60
2023/04/24 08:19:32;;;;;;;3.13;2.83;;;12.90;99.90;;;;;;5033664;28;20056;-59
2023/04/24 08:21:57;;;;;;;4.13;2.78;;;13.00;99.90;;;;;;5016957;28;20025;-59
2023/04/24 08:24:23;;;;;;;3.22;2.88;;;13.10;99.90;;;;;;5033714;28;20040;-59
2023/04/24 08:26:53;;;;;;;3.05;2.75;;;13.20;99.90;;;;;;5016779;28;20536;-58
2023/04/24 08:29:19;;;;;;;3.67;3.38;;;13.40;99.90;;;;;;5033630;28;20024;-57
2023/04/24 08:31:44;;;;;;;3.40;3.20;;;13.60;99.90;;;;;;5032013;28;20025;-57
2023/04/24 08:34:10;;;;;;;3.45;3.15;;;13.70;99.90;;;;;;5033959;28;20396;-59
2023/04/24 08:36:37;;;;;;;3.95;3.00;;;13.70;99.90;;;;;;5031637;28;20447;-58
2023/04/24 08:39:02;;;;;;;3.50;3.28;;;13.50;99.90;;;;;;5034822;28;20109;-58
2023/04/24 08:41:28;;;;;;;3.70;3.38;;;13.40;99.90;;;;;;5033172;28;20423;-59
2023/04/24 08:43:54;;;;;;;2.92;2.63;;;13.40;99.90;;;;;;5015451;28;20406;-59
2023/04/24 08:46:21;;;;;;;2.50;2.30;;;13.40;99.90;;;;;;5031336;28;20056;-59
2023/04/24 08:48:47;;;;;;;2.70;2.40;;;13.40;99.90;;;;;;5034701;28;20113;-59
2023/04/24 08:51:13;;;;;;;3.15;2.95;;;13.30;99.90;;;;;;5034131;28;20034;-59
2023/04/24 08:53:39;;;;;;;4.80;3.55;;;13.30;99.90;;;;;;5033577;28;20032;-59
2023/04/24 08:56:06;;;;;;;4.07;3.58;;;13.20;99.90;;;;;;5015659;28;20140;-59
2023/04/24 08:58:32;;;;;;;4.60;4.20;;;13.10;99.90;;;;;;5032673;28;20132;-59
2023/04/24 09:00:58;;;;;;;3.58;3.28;;;13.20;99.90;;;;;;5032415;28;20041;-56
2023/04/24 09:03:26;;;;;;;4.03;3.55;;;13.30;99.90;;;;;;5032995;28;20029;-59
2023/04/24 09:05:53;;;;;;;4.43;4.03;;;13.30;99.90;;;;;;5033196;28;20020;-55
2023/04/24 09:08:19;;;;;;;3.92;3.50;;;13.30;99.90;;;;;;5034522;28;20047;-58
2023/04/24 09:10:44;;;;;;;4.20;3.90;;;13.20;99.90;;;;;;5033720;28;20574;-58
2023/04/24 09:13:11;;;;;;;3.85;3.55;;;13.30;99.90;;;;;;5034250;28;20025;-59
2023/04/24 09:15:38;;;;;;;4.20;3.90;;;13.20;99.90;;;;;;5016300;28;20889;-57
2023/04/24 09:18:05;;;;;;;5.10;3.90;;;13.20;99.90;;;;;;5016827;28;20120;-59
2023/04/24 09:20:31;;;;;;;4.45;4.05;;;13.20;99.90;;;;;;5031466;28;20606;-59
2023/04/24 09:22:57;;;;;;;5.13;4.65;;;13.20;99.90;;;;;;5034512;28;20033;-59
2023/04/24 09:25:35;;;;;;;3.92;3.63;;;13.20;99.90;;;;;;5032916;28;20026;-59
2023/04/24 09:28:06;;;;;;;5.15;4.75;;;13.30;99.90;;;;;;5034013;28;20021;-59
2023/04/24 09:30:32;;;;;;;4.50;4.20;;;13.40;99.90;;;;;;5031112;28;20575;-60
2023/04/24 09:33:16;;;;;;;5.40;4.47;;;13.50;99.90;;;;;;5017003;28;20100;-58
2023/04/24 09:35:49;;;;;;;5.22;4.70;;;13.50;99.90;;;;;;5016173;28;20052;-59
2023/04/24 09:38:15;;;;;;;5.30;4.78;;;13.60;99.90;;;;;;5034333;28;20025;-59
2023/04/24 09:40:41;;;;;;;5.15;4.57;;;13.60;99.90;;;;;;5033879;28;20386;-59
2023/04/24 09:43:10;;;;;;;5.63;5.10;;;13.50;99.90;;;;;;5033436;28;20049;-59
2023/04/24 09:45:38;;;;;;;5.35;4.85;;;13.40;99.90;;;;;;5015249;28;20066;-59
2023/04/24 09:48:06;;;;;;;5.25;4.75;;;13.40;99.90;;;;;;5033556;28;20028;-58
2023/04/24 09:50:32;;;;;;;5.40;4.90;;;13.30;99.90;;;;;;5036155;28;20076;-58
2023/04/24 09:53:01;;;;;;;5.18;4.60;;;13.40;99.90;;;;;;5034507;28;20032;-59
2023/04/24 09:55:27;;;;;;;4.43;4.03;;;13.50;99.90;;;;;;5036639;28;20041;-59
2023/04/24 09:57:58;;;;;;;4.82;4.32;;;13.80;99.90;;;;;;5036155;28;20116;-59
2023/04/24 10:00:28;;;;;;;5.10;4.47;;;14.10;99.90;;;;;;5023062;28;20055;-58
2023/04/24 10:03:02;;;;;;;4.72;4.22;;;14.00;99.90;;;;;;5037112;28;20104;-58
2023/04/24 10:05:31;;;;;;;5.15;4.65;;;14.10;99.90;;;;;;5036030;28;20050;-59
2023/04/24 10:07:58;;;;;;;4.82;4.38;;;14.00;99.90;;;;;;5019190;28;20024;-59
2023/04/24 10:10:23;;;;;;;4.45;4.05;;;14.00;99.90;;;;;;5036089;28;20041;-60
2023/04/24 10:12:50;;;;;;;5.63;5.13;;;14.00;99.90;;;;;;5020433;28;20021;-58
2023/04/24 10:15:20;;;;;;;5.70;5.20;;;13.80;99.90;;;;;;5036269;28;20039;-59
2023/04/24 10:17:53;;;;;;;5.88;4.90;;;13.60;99.90;;;;;;5035118;28;20029;-58
2023/04/24 10:20:27;;;;;;;5.90;5.20;;;13.50;99.90;;;;;;5036430;28;20056;-58
2023/04/24 10:22:53;;;;;;;6.50;5.60;;;13.50;99.90;;;;;;5020322;28;20033;-59
2023/04/24 10:25:21;;;;;;;6.80;5.63;;;13.40;99.90;;;;;;5037281;28;20923;-57
2023/04/24 10:27:48;;;;;;;5.72;5.22;;;13.30;99.90;;;;;;5034634;28;20390;-57
2023/04/24 10:30:14;;;;;;;5.75;5.25;;;13.30;99.90;;;;;;5036215;28;20491;-58
2023/04/24 10:32:40;;;;;;;6.78;5.40;;;13.30;99.90;;;;;;5036805;28;20029;-55
2023/04/24 10:35:10;;;;;;;6.30;5.70;;;13.30;99.90;;;;;;5036654;28;20378;-59
2023/04/24 10:37:40;;;;;;;6.88;6.18;;;13.30;99.90;;;;;;5034743;28;20104;-58
2023/04/24 10:40:07;;;;;;;6.90;6.20;;;13.40;99.90;;;;;;5036456;28;20648;-58
2023/04/24 10:42:33;;;;;;;6.97;6.15;;;13.60;99.90;;;;;;5034235;28;20074;-58
2023/04/24 10:45:01;;;;;;;7.13;6.32;;;13.70;99.90;;;;;;5036871;28;20025;-59
2023/04/24 10:47:27;;;;;;;7.13;6.35;;;13.70;99.90;;;;;;5032690;28;20037;-59
2023/04/24 10:49:53;;;;;;;7.60;6.82;;;13.80;99.90;;;;;;5035985;28;20029;-59
2023/04/24 10:52:20;;;;;;;8.05;7.25;;;13.80;99.90;;;;;;5037409;28;20497;-59
2023/04/24 10:54:47;;;;;;;9.07;7.10;;;13.80;99.90;;;;;;5036000;28;20068;-59
2023/04/24 10:57:21;;;;;;;7.70;6.93;;;13.80;99.90;;;;;;5036042;28;20698;-57
2023/04/24 11:00:10;;;;;;;7.40;6.53;;;13.80;99.90;;;;;;5035878;28;20483;-59
2023/04/24 11:02:37;;;;;;;8.38;7.53;;;13.90;99.90;;;;;;5035344;28;20029;-58
2023/04/24 11:05:04;;;;;;;7.55;6.57;;;14.00;99.90;;;;;;5014731;28;20550;-59
2023/04/24 11:07:29;;;;;;;8.05;7.25;;;14.00;99.90;;;;;;5035465;28;20067;-59
2023/04/24 11:10:03;;;;;;;10.52;7.13;;;14.00;99.90;;;;;;5035441;28;20026;-59
2023/04/24 11:12:29;;;;;;;9.30;6.85;;;14.10;99.90;;;;;;5034818;28;20028;-58
2023/04/24 11:14:57;;;;;;;8.98;7.03;;;14.20;99.90;;;;;;5034063;28;20029;-59
2023/04/24 11:17:30;;;;;;;10.00;7.43;;;14.20;99.90;;;;;;5034248;28;20060;-58
2023/04/24 11:20:03;;;;;;;8.52;7.70;;;14.30;99.90;;;;;;5034259;28;20021;-58
2023/04/24 11:22:33;;;;;;;9.77;7.28;;;14.30;99.90;;;;;;5035956;28;20104;-60
2023/04/24 11:25:01;;;;;;;8.45;7.03;;;14.30;99.90;;;;;;5034949;28;20068;-59
2023/04/24 11:27:39;;;;;;;8.85;7.00;;;14.40;99.90;;;;;;5034654;28;20017;-58
2023/04/24 11:30:05;;;;;;;10.40;7.47;;;14.50;99.90;;;;;;5035524;28;20021;-59
2023/04/24 11:32:34;;;;;;;7.93;7.15;;;14.50;99.90;;;;;;5034457;28;20589;-59
2023/04/24 11:35:06;;;;;;;10.38;7.47;;;14.50;99.90;;;;;;5034898;28;20577;-60
2023/04/24 11:37:47;;;;;;;8.32;7.38;;;14.50;99.90;;;;;;5035122;28;20114;-59
2023/04/24 11:40:17;;;;;;;8.25;7.45;;;14.40;99.90;;;;;;5035382;28;20190;-59
2023/04/24 11:42:47;;;;;;;9.85;7.93;;;14.40;99.90;;;;;;5033976;28;20022;-58
2023/04/24 11:45:15;;;;;;;7.90;7.10;;;14.50;99.90;;;;;;5034411;28;20029;-57
2023/04/24 11:47:42;;;;;;;8.20;7.43;;;14.40;99.90;;;;;;5034926;28;20482;-61
2023/04/24 11:50:13;;;;;;;8.68;7.78;;;14.50;99.90;;;;;;5035653;28;20471;-59
2023/04/24 11:52:42;;;;;;;8.25;6.88;;;14.40;99.90;;;;;;5033933;28;20017;-59
2023/04/24 11:55:14;;;;;;;8.55;7.53;;;14.40;99.90;;;;;;5034228;28;20048;-58
2023/04/24 11:57:43;;;;;;;8.65;7.78;;;14.40;99.90;;;;;;5034246;28;20614;-59
2023/04/24 12:00:15;;;;;;;11.02;7.80;;;14.50;99.90;;;;;;5033944;28;20036;-59
2023/04/24 12:02:40;;;;;;;10.35;7.30;;;14.50;99.90;;;;;;5033813;28;20100;-59
2023/04/24 12:05:06;;;;;;;10.68;7.70;;;14.40;99.90;;;;;;5033864;28;20122;-58
2023/04/24 12:07:42;;;;;;;8.15;7.43;;;14.40;99.90;;;;;;5034461;28;20075;-58
2023/04/24 12:10:09;;;;;;;8.23;7.43;;;14.40;99.90;;;;;;5034426;28;20662;-59
2023/04/24 12:12:34;;;;;;;8.13;7.32;;;14.40;99.90;;;;;;5033784;28;20475;-59
2023/04/24 12:15:06;;;;;;;10.35;7.97;;;14.30;99.90;;;;;;5034073;28;20029;-59
2023/04/24 12:17:33;;;;;;;8.80;7.90;;;14.30;99.90;;;;;;5034276;28;20087;-59
2023/04/24 12:20:08;;;;;;;8.55;7.70;;;14.30;99.90;;;;;;5022554;28;20041;-57
2023/04/24 12:25:05;;;;;;;8.32;6.95;;;13.90;99.90;;;;;;5064358;23;20051;-52
2023/04/24 12:27:32;;;;;;;7.30;6.38;;;13.90;99.90;;;;;;5043945;28;20028;-48
2023/04/24 12:30:00;;;;;;;7.03;5.70;;;14.00;99.90;;;;;;5043947;28;20021;-50
2023/04/24 12:32:25;;;;;;;7.30;6.03;;;14.00;99.90;;;;;;5042089;28;20029;-47
2023/04/24 12:34:52;;;;;;;6.38;5.28;;;14.10;99.90;;;;;;5044553;28;20043;-49
2023/04/24 12:37:18;;;;;;;8.18;6.53;;;14.20;99.90;;;;;;5044162;28;20585;-47
2023/04/24 12:40:06;;;;;;;7.07;5.32;;;14.20;99.90;;;;;;5043858;28;20055;-49
2023/04/24 12:42:32;;;;;;;6.35;5.22;;;14.30;99.90;;;;;;5043058;28;20095;-48
2023/04/24 12:44:59;;;;;;;9.57;5.57;;;14.30;99.90;;;;;;5043198;28;20546;-48
2023/04/24 12:47:26;;;;;;;6.38;5.50;;;14.20;99.90;;;;;;5044975;28;20079;-49